sensor_id;sensor_type;location;lat;lon;timestamp;P1;durP1;ratioP1;P2;durP2;ratioP2
21122;SDS011;10719;48.130;11.630;2024-02-16T00:00:07;15.25;;;5.35;;
21122;SDS011;10719;48.130;11.630;2024-02-16T00:02:33;12.40;;;5.20;;
21122;SDS011;10719;48.130;11.630;2024-02-16T00:04:59;12.32;;;5.10;;
21122;SDS011;10719;48.130;11.630;2024-02-16T00:07:24;12.20;;;5.13;;
21122;SDS011;10719;48.130;11.630;2024-02-16T00:09:50;12.63;;;5.05;;
21122;SDS011;10719;48.130;11.630;2024-02-16T00:12:16;14.82;;;5.25;;
21122;SDS011;10719;48.130;11.630;2024-02-16T00:14:41;13.02;;;5.55;;
21122;SDS011;10719;48.130;11.630;2024-02-16T00:17:07;15.10;;;5.35;;
21122;SDS011;10719;48.130;11.630;2024-02-16T00:19:35;15.00;;;5.63;;
21122;SDS011;10719;48.130;11.630;2024-02-16T00:22:01;17.48;;;5.32;;
21122;SDS011;10719;48.130;11.630;2024-02-16T00:24:27;15.43;;;4.97;;
21122;SDS011;10719;48.130;11.630;2024-02-16T00:26:52;11.63;;;4.68;;
21122;SDS011;10719;48.130;11.630;2024-02-16T00:29:18;12.70;;;5.47;;
21122;SDS011;10719;48.130;11.630;2024-02-16T00:31:44;13.65;;;5.32;;
21122;SDS011;10719;48.130;11.630;2024-02-16T00:34:10;11.70;;;4.90;;
21122;SDS011;10719;48.130;11.630;2024-02-16T00:36:36;12.90;;;5.18;;
21122;SDS011;10719;48.130;11.630;2024-02-16T00:39:01;11.02;;;4.78;;
21122;SDS011;10719;48.130;11.630;2024-02-16T00:41:28;10.93;;;4.50;;
21122;SDS011;10719;48.130;11.630;2024-02-16T00:43:54;12.77;;;5.18;;
21122;SDS011;10719;48.130;11.630;2024-02-16T00:46:21;13.93;;;5.25;;
21122;SDS011;10719;48.130;11.630;2024-02-16T00:48:48;15.10;;;5.13;;
21122;SDS011;10719;48.130;11.630;2024-02-16T00:51:15;11.82;;;4.82;;
21122;SDS011;10719;48.130;11.630;2024-02-16T00:53:40;11.55;;;4.10;;
21122;SDS011;10719;48.130;11.630;2024-02-16T00:56:06;11.82;;;4.80;;
21122;SDS011;10719;48.130;11.630;2024-02-16T00:58:32;12.50;;;4.72;;
21122;SDS011;10719;48.130;11.630;2024-02-16T01:00:58;12.63;;;4.40;;
21122;SDS011;10719;48.130;11.630;2024-02-16T01:03:23;11.05;;;4.75;;
21122;SDS011;10719;48.130;11.630;2024-02-16T01:05:51;10.88;;;4.40;;
21122;SDS011;10719;48.130;11.630;2024-02-16T01:08:17;12.82;;;4.55;;
21122;SDS011;10719;48.130;11.630;2024-02-16T01:10:43;11.35;;;4.78;;
21122;SDS011;10719;48.130;11.630;2024-02-16T01:13:08;19.45;;;5.25;;
21122;SDS011;10719;48.130;11.630;2024-02-16T01:15:35;12.02;;;5.28;;
21122;SDS011;10719;48.130;11.630;2024-02-16T01:18:02;11.77;;;4.50;;
21122;SDS011;10719;48.130;11.630;2024-02-16T01:20:28;11.38;;;4.28;;
21122;SDS011;10719;48.130;11.630;2024-02-16T01:22:56;13.50;;;5.20;;
21122;SDS011;10719;48.130;11.630;2024-02-16T01:25:22;15.48;;;4.97;;
21122;SDS011;10719;48.130;11.630;2024-02-16T01:27:47;11.80;;;4.93;;
21122;SDS011;10719;48.130;11.630;2024-02-16T01:30:13;11.35;;;4.15;;
21122;SDS011;10719;48.130;11.630;2024-02-16T01:32:40;13.68;;;4.68;;
21122;SDS011;10719;48.130;11.630;2024-02-16T01:35:06;11.52;;;4.53;;
21122;SDS011;10719;48.130;11.630;2024-02-16T01:37:32;10.38;;;4.03;;
21122;SDS011;10719;48.130;11.630;2024-02-16T01:39:58;11.82;;;4.68;;
21122;SDS011;10719;48.130;11.630;2024-02-16T01:42:24;12.85;;;5.07;;
21122;SDS011;10719;48.130;11.630;2024-02-16T01:44:49;12.00;;;4.57;;
21122;SDS011;10719;48.130;11.630;2024-02-16T01:47:16;12.25;;;5.18;;
21122;SDS011;10719;48.130;11.630;2024-02-16T01:49:44;11.75;;;4.28;;
21122;SDS011;10719;48.130;11.630;2024-02-16T01:52:10;14.75;;;5.15;;
21122;SDS011;10719;48.130;11.630;2024-02-16T01:54:36;12.70;;;4.43;;
21122;SDS011;10719;48.130;11.630;2024-02-16T01:57:02;12.48;;;4.90;;
21122;SDS011;10719;48.130;11.630;2024-02-16T01:59:30;13.25;;;5.28;;
21122;SDS011;10719;48.130;11.630;2024-02-16T02:01:58;11.00;;;5.07;;
21122;SDS011;10719;48.130;11.630;2024-02-16T02:04:24;10.98;;;4.72;;
21122;SDS011;10719;48.130;11.630;2024-02-16T02:06:51;11.52;;;4.70;;
21122;SDS011;10719;48.130;11.630;2024-02-16T02:09:17;13.98;;;4.90;;
21122;SDS011;10719;48.130;11.630;2024-02-16T02:11:43;11.35;;;5.13;;
21122;SDS011;10719;48.130;11.630;2024-02-16T02:14:09;11.30;;;4.30;;
21122;SDS011;10719;48.130;11.630;2024-02-16T02:16:35;10.35;;;4.32;;
21122;SDS011;10719;48.130;11.630;2024-02-16T02:19:02;12.30;;;4.90;;
21122;SDS011;10719;48.130;11.630;2024-02-16T02:21:28;11.40;;;4.65;;
21122;SDS011;10719;48.130;11.630;2024-02-16T02:23:53;9.43;;;4.10;;
21122;SDS011;10719;48.130;11.630;2024-02-16T02:26:19;11.90;;;4.80;;
21122;SDS011;10719;48.130;11.630;2024-02-16T02:28:44;12.63;;;5.03;;
21122;SDS011;10719;48.130;11.630;2024-02-16T02:31:10;14.48;;;4.40;;
21122;SDS011;10719;48.130;11.630;2024-02-16T02:33:36;11.82;;;4.53;;
21122;SDS011;10719;48.130;11.630;2024-02-16T02:36:02;11.48;;;4.82;;
21122;SDS011;10719;48.130;11.630;2024-02-16T02:38:30;11.25;;;4.50;;
21122;SDS011;10719;48.130;11.630;2024-02-16T02:40:55;13.20;;;4.53;;
21122;SDS011;10719;48.130;11.630;2024-02-16T02:43:21;10.40;;;4.82;;
21122;SDS011;10719;48.130;11.630;2024-02-16T02:45:48;10.88;;;4.45;;
21122;SDS011;10719;48.130;11.630;2024-02-16T02:48:13;9.88;;;4.18;;
21122;SDS011;10719;48.130;11.630;2024-02-16T02:50:39;14.95;;;5.05;;
21122;SDS011;10719;48.130;11.630;2024-02-16T02:53:05;11.20;;;4.28;;
21122;SDS011;10719;48.130;11.630;2024-02-16T02:55:30;11.00;;;4.45;;
21122;SDS011;10719;48.130;11.630;2024-02-16T02:57:56;11.27;;;4.40;;
21122;SDS011;10719;48.130;11.630;2024-02-16T03:00:23;12.10;;;4.38;;
21122;SDS011;10719;48.130;11.630;2024-02-16T03:02:49;10.85;;;3.80;;
21122;SDS011;10719;48.130;11.630;2024-02-16T03:05:16;9.82;;;4.18;;
21122;SDS011;10719;48.130;11.630;2024-02-16T03:07:41;10.90;;;3.70;;
21122;SDS011;10719;48.130;11.630;2024-02-16T03:10:07;10.45;;;4.00;;
21122;SDS011;10719;48.130;11.630;2024-02-16T03:12:36;13.52;;;4.10;;
21122;SDS011;10719;48.130;11.630;2024-02-16T03:15:01;9.77;;;3.85;;
21122;SDS011;10719;48.130;11.630;2024-02-16T03:17:28;10.43;;;3.92;;
21122;SDS011;10719;48.130;11.630;2024-02-16T03:19:54;8.27;;;3.67;;
21122;SDS011;10719;48.130;11.630;2024-02-16T03:22:20;10.73;;;3.88;;
21122;SDS011;10719;48.130;11.630;2024-02-16T03:24:45;8.18;;;3.50;;
21122;SDS011;10719;48.130;11.630;2024-02-16T03:27:12;9.63;;;3.47;;
21122;SDS011;10719;48.130;11.630;2024-02-16T03:29:39;8.85;;;3.45;;
21122;SDS011;10719;48.130;11.630;2024-02-16T03:32:04;9.55;;;3.38;;
21122;SDS011;10719;48.130;11.630;2024-02-16T03:34:30;10.23;;;3.67;;
21122;SDS011;10719;48.130;11.630;2024-02-16T03:36:55;10.60;;;3.38;;
21122;SDS011;10719;48.130;11.630;2024-02-16T03:39:21;6.93;;;3.33;;
21122;SDS011;10719;48.130;11.630;2024-02-16T03:41:47;10.35;;;3.45;;
21122;SDS011;10719;48.130;11.630;2024-02-16T03:44:14;10.35;;;3.83;;
21122;SDS011;10719;48.130;11.630;2024-02-16T03:46:40;9.60;;;3.80;;
21122;SDS011;10719;48.130;11.630;2024-02-16T03:49:07;8.60;;;3.60;;
21122;SDS011;10719;48.130;11.630;2024-02-16T03:51:32;9.52;;;3.50;;
21122;SDS011;10719;48.130;11.630;2024-02-16T03:53:58;11.50;;;3.40;;
21122;SDS011;10719;48.130;11.630;2024-02-16T03:56:24;10.18;;;3.50;;
21122;SDS011;10719;48.130;11.630;2024-02-16T03:58:50;9.50;;;3.83;;
21122;SDS011;10719;48.130;11.630;2024-02-16T04:01:15;9.52;;;3.45;;
21122;SDS011;10719;48.130;11.630;2024-02-16T04:03:41;7.47;;;2.92;;
21122;SDS011;10719;48.130;11.630;2024-02-16T04:06:07;8.43;;;3.20;;
21122;SDS011;10719;48.130;11.630;2024-02-16T04:08:33;7.93;;;3.15;;
21122;SDS011;10719;48.130;11.630;2024-02-16T04:10:58;8.77;;;3.10;;
21122;SDS011;10719;48.130;11.630;2024-02-16T04:13:24;6.82;;;2.75;;
21122;SDS011;10719;48.130;11.630;2024-02-16T04:15:50;5.57;;;2.40;;
21122;SDS011;10719;48.130;11.630;2024-02-16T04:18:15;7.90;;;2.58;;
21122;SDS011;10719;48.130;11.630;2024-02-16T04:20:41;9.68;;;2.60;;
21122;SDS011;10719;48.130;11.630;2024-02-16T04:23:06;8.00;;;2.95;;
21122;SDS011;10719;48.130;11.630;2024-02-16T04:25:33;5.25;;;2.30;;
21122;SDS011;10719;48.130;11.630;2024-02-16T04:27:58;6.63;;;2.10;;
21122;SDS011;10719;48.130;11.630;2024-02-16T04:30:24;6.57;;;2.53;;
21122;SDS011;10719;48.130;11.630;2024-02-16T04:32:50;5.88;;;2.60;;
21122;SDS011;10719;48.130;11.630;2024-02-16T04:35:15;7.97;;;2.33;;
21122;SDS011;10719;48.130;11.630;2024-02-16T04:37:41;7.13;;;2.63;;
21122;SDS011;10719;48.130;11.630;2024-02-16T04:40:07;5.70;;;2.20;;
21122;SDS011;10719;48.130;11.630;2024-02-16T04:42:33;8.52;;;2.33;;
21122;SDS011;10719;48.130;11.630;2024-02-16T04:44:59;5.75;;;2.28;;
21122;SDS011;10719;48.130;11.630;2024-02-16T04:47:25;7.63;;;2.20;;
21122;SDS011;10719;48.130;11.630;2024-02-16T04:49:51;5.53;;;2.05;;
21122;SDS011;10719;48.130;11.630;2024-02-16T04:52:17;7.35;;;2.22;;
21122;SDS011;10719;48.130;11.630;2024-02-16T04:54:42;5.07;;;2.33;;
21122;SDS011;10719;48.130;11.630;2024-02-16T04:57:08;6.53;;;2.40;;
21122;SDS011;10719;48.130;11.630;2024-02-16T04:59:33;5.70;;;2.15;;
21122;SDS011;10719;48.130;11.630;2024-02-16T05:01:59;6.93;;;2.33;;
21122;SDS011;10719;48.130;11.630;2024-02-16T05:04:25;4.75;;;1.98;;
21122;SDS011;10719;48.130;11.630;2024-02-16T05:06:50;5.97;;;2.00;;
21122;SDS011;10719;48.130;11.630;2024-02-16T05:09:17;5.07;;;2.05;;
21122;SDS011;10719;48.130;11.630;2024-02-16T05:11:43;6.43;;;2.13;;
21122;SDS011;10719;48.130;11.630;2024-02-16T05:14:10;5.40;;;1.92;;
21122;SDS011;10719;48.130;11.630;2024-02-16T05:16:43;5.40;;;1.88;;
21122;SDS011;10719;48.130;11.630;2024-02-16T05:19:09;4.85;;;1.85;;
21122;SDS011;10719;48.130;11.630;2024-02-16T05:21:35;4.63;;;1.65;;
21122;SDS011;10719;48.130;11.630;2024-02-16T05:24:00;5.13;;;1.80;;
21122;SDS011;10719;48.130;11.630;2024-02-16T05:26:27;6.28;;;1.75;;
21122;SDS011;10719;48.130;11.630;2024-02-16T05:28:52;7.53;;;1.73;;
21122;SDS011;10719;48.130;11.630;2024-02-16T05:31:18;5.00;;;1.70;;
21122;SDS011;10719;48.130;11.630;2024-02-16T05:33:44;3.60;;;1.63;;
21122;SDS011;10719;48.130;11.630;2024-02-16T05:36:16;7.40;;;1.90;;
21122;SDS011;10719;48.130;11.630;2024-02-16T05:38:43;3.10;;;1.63;;
21122;SDS011;10719;48.130;11.630;2024-02-16T05:41:09;3.80;;;1.58;;
21122;SDS011;10719;48.130;11.630;2024-02-16T05:43:36;5.28;;;1.90;;
21122;SDS011;10719;48.130;11.630;2024-02-16T05:46:03;5.43;;;1.88;;
21122;SDS011;10719;48.130;11.630;2024-02-16T05:48:31;6.65;;;1.73;;
21122;SDS011;10719;48.130;11.630;2024-02-16T05:51:03;6.75;;;2.47;;
21122;SDS011;10719;48.130;11.630;2024-02-16T05:53:30;3.58;;;1.50;;
21122;SDS011;10719;48.130;11.630;2024-02-16T05:55:56;4.75;;;1.55;;
21122;SDS011;10719;48.130;11.630;2024-02-16T05:58:21;4.90;;;1.90;;
21122;SDS011;10719;48.130;11.630;2024-02-16T06:00:48;3.35;;;1.65;;
21122;SDS011;10719;48.130;11.630;2024-02-16T06:03:14;4.65;;;1.92;;
21122;SDS011;10719;48.130;11.630;2024-02-16T06:05:40;5.35;;;1.73;;
21122;SDS011;10719;48.130;11.630;2024-02-16T06:08:06;6.20;;;1.73;;
21122;SDS011;10719;48.130;11.630;2024-02-16T06:10:32;5.07;;;1.70;;
21122;SDS011;10719;48.130;11.630;2024-02-16T06:12:58;4.43;;;1.63;;
21122;SDS011;10719;48.130;11.630;2024-02-16T06:15:24;5.70;;;1.75;;
21122;SDS011;10719;48.130;11.630;2024-02-16T06:17:50;5.13;;;1.88;;
21122;SDS011;10719;48.130;11.630;2024-02-16T06:20:16;5.15;;;1.83;;
21122;SDS011;10719;48.130;11.630;2024-02-16T06:22:41;4.57;;;1.40;;
21122;SDS011;10719;48.130;11.630;2024-02-16T06:25:07;6.45;;;1.83;;
21122;SDS011;10719;48.130;11.630;2024-02-16T06:27:33;4.95;;;1.67;;
21122;SDS011;10719;48.130;11.630;2024-02-16T06:29:59;4.68;;;1.90;;
21122;SDS011;10719;48.130;11.630;2024-02-16T06:32:25;4.30;;;1.70;;
21122;SDS011;10719;48.130;11.630;2024-02-16T06:34:52;3.63;;;1.73;;
21122;SDS011;10719;48.130;11.630;2024-02-16T06:37:18;7.53;;;2.03;;
21122;SDS011;10719;48.130;11.630;2024-02-16T06:39:43;3.15;;;1.50;;
21122;SDS011;10719;48.130;11.630;2024-02-16T06:42:09;3.50;;;1.50;;
21122;SDS011;10719;48.130;11.630;2024-02-16T06:44:37;5.07;;;1.83;;
21122;SDS011;10719;48.130;11.630;2024-02-16T06:47:03;4.20;;;1.60;;
21122;SDS011;10719;48.130;11.630;2024-02-16T06:49:30;4.97;;;1.73;;
21122;SDS011;10719;48.130;11.630;2024-02-16T06:51:56;7.00;;;2.00;;
21122;SDS011;10719;48.130;11.630;2024-02-16T06:54:21;4.85;;;1.88;;
21122;SDS011;10719;48.130;11.630;2024-02-16T06:56:47;4.57;;;1.70;;
21122;SDS011;10719;48.130;11.630;2024-02-16T06:59:13;4.60;;;1.88;;
21122;SDS011;10719;48.130;11.630;2024-02-16T07:01:38;5.15;;;1.75;;
21122;SDS011;10719;48.130;11.630;2024-02-16T07:04:05;6.05;;;1.95;;
21122;SDS011;10719;48.130;11.630;2024-02-16T07:06:31;5.10;;;1.85;;
21122;SDS011;10719;48.130;11.630;2024-02-16T07:08:56;8.57;;;2.13;;
21122;SDS011;10719;48.130;11.630;2024-02-16T07:11:22;6.00;;;2.05;;
21122;SDS011;10719;48.130;11.630;2024-02-16T07:13:47;6.28;;;2.03;;
21122;SDS011;10719;48.130;11.630;2024-02-16T07:16:13;4.47;;;1.95;;
21122;SDS011;10719;48.130;11.630;2024-02-16T07:18:39;4.07;;;1.50;;
21122;SDS011;10719;48.130;11.630;2024-02-16T07:21:04;8.23;;;1.90;;
21122;SDS011;10719;48.130;11.630;2024-02-16T07:23:30;6.50;;;2.03;;
21122;SDS011;10719;48.130;11.630;2024-02-16T07:25:56;7.22;;;2.70;;
21122;SDS011;10719;48.130;11.630;2024-02-16T07:28:23;9.45;;;2.88;;
21122;SDS011;10719;48.130;11.630;2024-02-16T07:30:49;6.28;;;2.53;;
21122;SDS011;10719;48.130;11.630;2024-02-16T07:33:16;11.65;;;3.00;;
21122;SDS011;10719;48.130;11.630;2024-02-16T07:35:42;11.25;;;3.22;;
21122;SDS011;10719;48.130;11.630;2024-02-16T07:38:08;8.05;;;2.65;;
21122;SDS011;10719;48.130;11.630;2024-02-16T07:40:33;9.55;;;2.80;;
21122;SDS011;10719;48.130;11.630;2024-02-16T07:42:59;8.07;;;2.85;;
21122;SDS011;10719;48.130;11.630;2024-02-16T07:45:25;10.35;;;2.38;;
21122;SDS011;10719;48.130;11.630;2024-02-16T07:47:51;11.48;;;2.72;;
21122;SDS011;10719;48.130;11.630;2024-02-16T07:50:20;5.97;;;2.10;;
21122;SDS011;10719;48.130;11.630;2024-02-16T07:52:46;8.07;;;2.60;;
21122;SDS011;10719;48.130;11.630;2024-02-16T07:55:12;9.82;;;2.70;;
21122;SDS011;10719;48.130;11.630;2024-02-16T07:57:38;7.78;;;2.25;;
21122;SDS011;10719;48.130;11.630;2024-02-16T08:00:04;7.95;;;2.55;;
21122;SDS011;10719;48.130;11.630;2024-02-16T08:02:30;10.00;;;2.40;;
21122;SDS011;10719;48.130;11.630;2024-02-16T08:04:56;7.03;;;2.10;;
21122;SDS011;10719;48.130;11.630;2024-02-16T08:07:23;11.20;;;2.65;;
21122;SDS011;10719;48.130;11.630;2024-02-16T08:09:48;5.32;;;2.25;;
21122;SDS011;10719;48.130;11.630;2024-02-16T08:12:14;8.98;;;2.28;;
21122;SDS011;10719;48.130;11.630;2024-02-16T08:14:40;7.60;;;2.17;;
21122;SDS011;10719;48.130;11.630;2024-02-16T08:17:07;6.93;;;2.35;;
21122;SDS011;10719;48.130;11.630;2024-02-16T08:19:34;9.35;;;2.35;;
21122;SDS011;10719;48.130;11.630;2024-02-16T08:22:01;13.50;;;2.55;;
21122;SDS011;10719;48.130;11.630;2024-02-16T08:24:27;10.70;;;1.70;;
21122;SDS011;10719;48.130;11.630;2024-02-16T08:26:52;8.00;;;2.30;;
21122;SDS011;10719;48.130;11.630;2024-02-16T08:29:18;5.30;;;1.98;;
21122;SDS011;10719;48.130;11.630;2024-02-16T08:31:47;4.80;;;1.90;;
21122;SDS011;10719;48.130;11.630;2024-02-16T08:34:14;6.22;;;2.28;;
21122;SDS011;10719;48.130;11.630;2024-02-16T08:36:43;7.93;;;1.85;;
21122;SDS011;10719;48.130;11.630;2024-02-16T08:39:09;8.82;;;2.35;;
21122;SDS011;10719;48.130;11.630;2024-02-16T08:41:36;5.88;;;1.92;;
21122;SDS011;10719;48.130;11.630;2024-02-16T08:44:02;5.88;;;1.98;;
21122;SDS011;10719;48.130;11.630;2024-02-16T08:46:28;6.40;;;1.80;;
21122;SDS011;10719;48.130;11.630;2024-02-16T08:48:54;5.20;;;2.03;;
21122;SDS011;10719;48.130;11.630;2024-02-16T08:51:20;5.78;;;2.05;;
21122;SDS011;10719;48.130;11.630;2024-02-16T08:53:46;4.50;;;1.67;;
21122;SDS011;10719;48.130;11.630;2024-02-16T08:56:12;4.03;;;1.73;;
21122;SDS011;10719;48.130;11.630;2024-02-16T08:58:38;5.15;;;1.80;;
21122;SDS011;10719;48.130;11.630;2024-02-16T09:01:04;4.25;;;1.38;;
21122;SDS011;10719;48.130;11.630;2024-02-16T09:03:30;7.10;;;1.80;;
21122;SDS011;10719;48.130;11.630;2024-02-16T09:06:01;5.60;;;1.85;;
21122;SDS011;10719;48.130;11.630;2024-02-16T09:08:28;2.15;;;1.23;;
21122;SDS011;10719;48.130;11.630;2024-02-16T09:10:58;4.28;;;1.67;;
21122;SDS011;10719;48.130;11.630;2024-02-16T09:13:30;7.18;;;1.80;;
21122;SDS011;10719;48.130;11.630;2024-02-16T09:16:01;5.95;;;1.70;;
21122;SDS011;10719;48.130;11.630;2024-02-16T09:18:28;5.78;;;2.05;;
21122;SDS011;10719;48.130;11.630;2024-02-16T09:20:54;4.35;;;1.50;;
21122;SDS011;10719;48.130;11.630;2024-02-16T09:23:19;5.95;;;1.83;;
21122;SDS011;10719;48.130;11.630;2024-02-16T09:25:45;5.65;;;1.60;;
21122;SDS011;10719;48.130;11.630;2024-02-16T09:28:14;3.85;;;1.38;;
21122;SDS011;10719;48.130;11.630;2024-02-16T09:30:40;4.80;;;1.90;;
21122;SDS011;10719;48.130;11.630;2024-02-16T09:33:05;3.45;;;1.40;;
21122;SDS011;10719;48.130;11.630;2024-02-16T09:35:32;10.38;;;1.85;;
21122;SDS011;10719;48.130;11.630;2024-02-16T09:37:58;5.55;;;1.70;;
21122;SDS011;10719;48.130;11.630;2024-02-16T09:40:23;7.60;;;1.90;;
21122;SDS011;10719;48.130;11.630;2024-02-16T09:42:49;5.82;;;1.50;;
21122;SDS011;10719;48.130;11.630;2024-02-16T09:45:15;8.68;;;1.83;;
21122;SDS011;10719;48.130;11.630;2024-02-16T09:47:42;9.07;;;1.98;;
21122;SDS011;10719;48.130;11.630;2024-02-16T09:50:11;4.10;;;1.45;;
21122;SDS011;10719;48.130;11.630;2024-02-16T09:52:37;3.65;;;1.60;;
21122;SDS011;10719;48.130;11.630;2024-02-16T09:55:03;6.40;;;1.80;;
21122;SDS011;10719;48.130;11.630;2024-02-16T09:57:32;5.00;;;1.55;;
21122;SDS011;10719;48.130;11.630;2024-02-16T09:59:57;6.32;;;1.40;;
21122;SDS011;10719;48.130;11.630;2024-02-16T10:02:24;4.43;;;1.35;;
21122;SDS011;10719;48.130;11.630;2024-02-16T10:04:49;7.05;;;1.60;;
21122;SDS011;10719;48.130;11.630;2024-02-16T10:07:15;8.75;;;1.52;;
21122;SDS011;10719;48.130;11.630;2024-02-16T10:09:41;3.80;;;1.13;;
21122;SDS011;10719;48.130;11.630;2024-02-16T10:12:06;1.95;;;0.90;;
21122;SDS011;10719;48.130;11.630;2024-02-16T10:14:32;5.20;;;1.30;;
21122;SDS011;10719;48.130;11.630;2024-02-16T10:19:28;7.72;;;2.10;;
21122;SDS011;10719;48.130;11.630;2024-02-16T10:22:11;12.48;;;3.17;;
21122;SDS011;10719;48.130;11.630;2024-02-16T10:24:37;15.95;;;2.90;;
21122;SDS011;10719;48.130;11.630;2024-02-16T10:27:13;2.63;;;1.00;;
21122;SDS011;10719;48.130;11.630;2024-02-16T10:29:42;5.22;;;1.40;;
21122;SDS011;10719;48.130;11.630;2024-02-16T10:32:10;4.60;;;1.45;;
21122;SDS011;10719;48.130;11.630;2024-02-16T10:34:37;2.60;;;0.88;;
21122;SDS011;10719;48.130;11.630;2024-02-16T10:37:05;1.70;;;0.70;;
21122;SDS011;10719;48.130;11.630;2024-02-16T10:39:32;2.15;;;0.75;;
21122;SDS011;10719;48.130;11.630;2024-02-16T10:41:58;2.92;;;0.70;;
21122;SDS011;10719;48.130;11.630;2024-02-16T10:44:27;4.90;;;1.00;;
21122;SDS011;10719;48.130;11.630;2024-02-16T10:46:54;4.55;;;1.50;;
21122;SDS011;10719;48.130;11.630;2024-02-16T10:49:23;2.38;;;0.82;;
21122;SDS011;10719;48.130;11.630;2024-02-16T10:51:51;2.38;;;0.90;;
21122;SDS011;10719;48.130;11.630;2024-02-16T10:54:22;2.28;;;0.85;;
21122;SDS011;10719;48.130;11.630;2024-02-16T10:56:53;4.43;;;0.77;;
21122;SDS011;10719;48.130;11.630;2024-02-16T10:59:18;6.82;;;2.20;;
21122;SDS011;10719;48.130;11.630;2024-02-16T11:01:44;6.28;;;1.90;;
21122;SDS011;10719;48.130;11.630;2024-02-16T11:04:13;8.45;;;3.10;;
21122;SDS011;10719;48.130;11.630;2024-02-16T11:06:45;4.78;;;1.30;;
21122;SDS011;10719;48.130;11.630;2024-02-16T11:09:11;4.72;;;0.75;;
21122;SDS011;10719;48.130;11.630;2024-02-16T11:11:52;4.43;;;1.08;;
21122;SDS011;10719;48.130;11.630;2024-02-16T11:14:18;3.63;;;0.90;;
21122;SDS011;10719;48.130;11.630;2024-02-16T11:16:46;7.75;;;1.10;;
21122;SDS011;10719;48.130;11.630;2024-02-16T11:19:12;3.72;;;0.90;;
21122;SDS011;10719;48.130;11.630;2024-02-16T11:21:58;2.03;;;1.08;;
21122;SDS011;10719;48.130;11.630;2024-02-16T11:24:29;5.13;;;1.08;;
21122;SDS011;10719;48.130;11.630;2024-02-16T11:26:56;6.70;;;1.30;;
21122;SDS011;10719;48.130;11.630;2024-02-16T11:29:22;5.20;;;0.93;;
21122;SDS011;10719;48.130;11.630;2024-02-16T11:31:48;2.78;;;1.00;;
21122;SDS011;10719;48.130;11.630;2024-02-16T11:34:24;4.35;;;1.17;;
21122;SDS011;10719;48.130;11.630;2024-02-16T11:36:57;3.30;;;1.15;;
21122;SDS011;10719;48.130;11.630;2024-02-16T11:39:23;2.22;;;0.98;;
21122;SDS011;10719;48.130;11.630;2024-02-16T11:42:00;10.65;;;1.75;;
21122;SDS011;10719;48.130;11.630;2024-02-16T11:44:28;4.97;;;1.65;;
21122;SDS011;10719;48.130;11.630;2024-02-16T11:46:55;5.45;;;1.42;;
21122;SDS011;10719;48.130;11.630;2024-02-16T11:49:21;5.85;;;1.58;;
21122;SDS011;10719;48.130;11.630;2024-02-16T11:51:47;3.83;;;1.10;;
21122;SDS011;10719;48.130;11.630;2024-02-16T11:54:13;2.58;;;1.00;;
21122;SDS011;10719;48.130;11.630;2024-02-16T11:56:40;4.03;;;1.50;;
21122;SDS011;10719;48.130;11.630;2024-02-16T11:59:16;6.05;;;1.30;;
21122;SDS011;10719;48.130;11.630;2024-02-16T12:01:49;4.78;;;1.25;;
21122;SDS011;10719;48.130;11.630;2024-02-16T12:04:21;2.28;;;1.08;;
21122;SDS011;10719;48.130;11.630;2024-02-16T12:06:57;2.65;;;0.95;;
21122;SDS011;10719;48.130;11.630;2024-02-16T12:09:25;4.88;;;1.48;;
21122;SDS011;10719;48.130;11.630;2024-02-16T12:11:51;2.97;;;1.02;;
21122;SDS011;10719;48.130;11.630;2024-02-16T12:14:18;3.10;;;1.05;;
21122;SDS011;10719;48.130;11.630;2024-02-16T12:16:46;2.55;;;1.02;;
21122;SDS011;10719;48.130;11.630;2024-02-16T12:19:13;4.25;;;1.20;;
21122;SDS011;10719;48.130;11.630;2024-02-16T12:21:39;2.05;;;0.80;;
21122;SDS011;10719;48.130;11.630;2024-02-16T12:24:05;5.28;;;1.25;;
21122;SDS011;10719;48.130;11.630;2024-02-16T12:26:31;5.07;;;1.15;;
21122;SDS011;10719;48.130;11.630;2024-02-16T12:28:56;4.35;;;1.10;;
21122;SDS011;10719;48.130;11.630;2024-02-16T12:31:22;7.10;;;1.35;;
21122;SDS011;10719;48.130;11.630;2024-02-16T12:33:48;4.53;;;1.20;;
21122;SDS011;10719;48.130;11.630;2024-02-16T12:36:14;3.90;;;1.17;;
21122;SDS011;10719;48.130;11.630;2024-02-16T12:38:40;3.83;;;1.40;;
21122;SDS011;10719;48.130;11.630;2024-02-16T12:41:05;6.40;;;1.10;;
21122;SDS011;10719;48.130;11.630;2024-02-16T12:43:31;2.30;;;1.00;;
21122;SDS011;10719;48.130;11.630;2024-02-16T12:45:57;4.35;;;0.90;;
21122;SDS011;10719;48.130;11.630;2024-02-16T12:48:26;1.80;;;0.85;;
21122;SDS011;10719;48.130;11.630;2024-02-16T12:50:52;4.15;;;1.35;;
21122;SDS011;10719;48.130;11.630;2024-02-16T12:53:18;4.72;;;1.35;;
21122;SDS011;10719;48.130;11.630;2024-02-16T12:55:45;2.13;;;0.98;;
21122;SDS011;10719;48.130;11.630;2024-02-16T12:58:12;4.22;;;1.38;;
21122;SDS011;10719;48.130;11.630;2024-02-16T13:00:38;3.53;;;1.00;;
21122;SDS011;10719;48.130;11.630;2024-02-16T13:03:04;5.32;;;0.93;;
21122;SDS011;10719;48.130;11.630;2024-02-16T13:05:29;5.57;;;1.33;;
21122;SDS011;10719;48.130;11.630;2024-02-16T13:07:57;5.10;;;1.00;;
21122;SDS011;10719;48.130;11.630;2024-02-16T13:10:23;17.60;;;1.77;;
21122;SDS011;10719;48.130;11.630;2024-02-16T13:12:49;4.55;;;1.25;;
21122;SDS011;10719;48.130;11.630;2024-02-16T13:15:15;4.32;;;1.17;;
21122;SDS011;10719;48.130;11.630;2024-02-16T13:17:40;4.63;;;1.30;;
21122;SDS011;10719;48.130;11.630;2024-02-16T13:20:06;3.97;;;1.02;;
21122;SDS011;10719;48.130;11.630;2024-02-16T13:22:34;4.38;;;1.20;;
21122;SDS011;10719;48.130;11.630;2024-02-16T13:25:01;3.50;;;1.02;;
21122;SDS011;10719;48.130;11.630;2024-02-16T13:27:28;4.43;;;0.82;;
21122;SDS011;10719;48.130;11.630;2024-02-16T13:29:54;9.20;;;1.00;;
21122;SDS011;10719;48.130;11.630;2024-02-16T13:32:20;2.55;;;1.10;;
21122;SDS011;10719;48.130;11.630;2024-02-16T13:34:46;3.58;;;1.20;;
21122;SDS011;10719;48.130;11.630;2024-02-16T13:37:11;5.90;;;1.23;;
21122;SDS011;10719;48.130;11.630;2024-02-16T13:39:38;7.47;;;1.20;;
21122;SDS011;10719;48.130;11.630;2024-02-16T13:42:04;3.03;;;0.98;;
21122;SDS011;10719;48.130;11.630;2024-02-16T13:44:30;5.97;;;1.30;;
21122;SDS011;10719;48.130;11.630;2024-02-16T13:46:56;3.63;;;1.30;;
21122;SDS011;10719;48.130;11.630;2024-02-16T13:49:22;2.63;;;1.23;;
21122;SDS011;10719;48.130;11.630;2024-02-16T13:51:48;4.15;;;1.25;;
21122;SDS011;10719;48.130;11.630;2024-02-16T13:54:14;3.80;;;1.52;;
21122;SDS011;10719;48.130;11.630;2024-02-16T13:56:39;8.23;;;1.55;;
21122;SDS011;10719;48.130;11.630;2024-02-16T13:59:05;5.43;;;1.33;;
21122;SDS011;10719;48.130;11.630;2024-02-16T14:01:32;10.43;;;1.30;;
21122;SDS011;10719;48.130;11.630;2024-02-16T14:03:59;5.38;;;1.33;;
21122;SDS011;10719;48.130;11.630;2024-02-16T14:06:24;6.15;;;1.52;;
21122;SDS011;10719;48.130;11.630;2024-02-16T14:08:50;3.55;;;1.27;;
21122;SDS011;10719;48.130;11.630;2024-02-16T14:11:18;3.55;;;1.20;;
21122;SDS011;10719;48.130;11.630;2024-02-16T14:13:43;4.65;;;1.33;;
21122;SDS011;10719;48.130;11.630;2024-02-16T14:16:09;8.63;;;1.60;;
21122;SDS011;10719;48.130;11.630;2024-02-16T14:18:35;3.78;;;1.35;;
21122;SDS011;10719;48.130;11.630;2024-02-16T14:21:01;6.38;;;1.60;;
21122;SDS011;10719;48.130;11.630;2024-02-16T14:23:29;3.83;;;1.40;;
21122;SDS011;10719;48.130;11.630;2024-02-16T14:25:55;2.67;;;1.20;;
21122;SDS011;10719;48.130;11.630;2024-02-16T14:28:20;11.10;;;2.13;;